Map

Track Data

SID SEASON NUMBER BASIN SUBBASIN NAME ISO_TIME NATURE LAT LON WMO_WIND WMO_PRES WMO_AGENCY TRACK_TYPE DIST2LAND LANDFALL IFLAG USA_AGENCY USA_ATCF_ID USA_LAT USA_LON USA_RECORD USA_STATUS USA_WIND USA_PRES USA_SSHS USA_R34_NE USA_R34_SE USA_R34_SW USA_R34_NW USA_R50_NE USA_R50_SE USA_R50_SW USA_R50_NW USA_R64_NE USA_R64_SE USA_R64_SW USA_R64_NW USA_POCI USA_ROCI USA_RMW USA_EYE TOKYO_LAT TOKYO_LON TOKYO_GRADE TOKYO_WIND TOKYO_PRES TOKYO_R50_DIR TOKYO_R50_LONG TOKYO_R50_SHORT TOKYO_R30_DIR TOKYO_R30_LONG TOKYO_R30_SHORT TOKYO_LAND CMA_LAT CMA_LON CMA_CAT CMA_WIND CMA_PRES HKO_LAT HKO_LON HKO_CAT HKO_WIND HKO_PRES NEWDELHI_LAT NEWDELHI_LON NEWDELHI_GRADE NEWDELHI_WIND NEWDELHI_PRES NEWDELHI_CI NEWDELHI_DP NEWDELHI_POCI REUNION_LAT REUNION_LON REUNION_TYPE REUNION_WIND REUNION_PRES REUNION_TNUM REUNION_CI REUNION_RMW REUNION_R34_NE REUNION_R34_SE REUNION_R34_SW REUNION_R34_NW REUNION_R50_NE REUNION_R50_SE REUNION_R50_SW REUNION_R50_NW REUNION_R64_NE REUNION_R64_SE REUNION_R64_SW REUNION_R64_NW BOM_LAT BOM_LON BOM_TYPE BOM_WIND BOM_PRES BOM_TNUM BOM_CI BOM_RMW BOM_R34_NE BOM_R34_SE BOM_R34_SW BOM_R34_NW BOM_R50_NE BOM_R50_SE BOM_R50_SW BOM_R50_NW BOM_R64_NE BOM_R64_SE BOM_R64_SW BOM_R64_NW BOM_ROCI BOM_POCI BOM_EYE BOM_POS_METHOD BOM_PRES_METHOD NADI_LAT NADI_LON NADI_CAT NADI_WIND NADI_PRES WELLINGTON_LAT WELLINGTON_LON WELLINGTON_WIND WELLINGTON_PRES DS824_LAT DS824_LON DS824_STAGE DS824_WIND DS824_PRES TD9636_LAT TD9636_LON TD9636_STAGE TD9636_WIND TD9636_PRES TD9635_LAT TD9635_LON TD9635_WIND TD9635_PRES TD9635_ROCI NEUMANN_LAT NEUMANN_LON NEUMANN_CLASS NEUMANN_WIND NEUMANN_PRES MLC_LAT MLC_LON MLC_CLASS MLC_WIND MLC_PRES USA_GUST BOM_GUST BOM_GUST_PER REUNION_GUST REUNION_GUST_PER USA_SEAHGT USA_SEARAD_NE USA_SEARAD_SE USA_SEARAD_SW USA_SEARAD_NW STORM_SPEED STORM_DIR
1909072S15056 1909 19 SI MM NOT_NAMED 1909-03-13 00:00:00 NR -15.0575 56.4945 spur-other 569 562 ______________ -1 7 244
1909072S15056 1909 19 SI MM NOT_NAMED 1909-03-13 03:00:00 NR -15.2231 56.1489 spur-other 567 552 ______________ -1 8 243
1909072S15056 1909 19 SI MM NOT_NAMED 1909-03-13 06:00:00 NR -15.4000 55.8000 reunion spur-other 555 536 _____O________ -1 -15.4000 55.8000 99 9.90000 8 243
1909072S15056 1909 19 SI MM NOT_NAMED 1909-03-13 09:00:00 NR -15.5735 55.4374 spur-other 525 494 _____P________ -1 -15.5846 55.4157 99 8 243
1909072S15056 1909 19 SI MM NOT_NAMED 1909-03-13 12:00:00 NR -15.7583 55.0652 spur-other 494 453 _____P________ -1 -15.7714 55.0342 99 8 242
1909072S15056 1909 19 SI MM NOT_NAMED 1909-03-13 15:00:00 NR -15.9543 54.6899 spur-other 454 414 _____P________ -1 -15.9632 54.6591 99 8 241
1909072S15056 1909 19 SI MM NOT_NAMED 1909-03-13 18:00:00 NR -16.1613 54.3182 spur-other 416 387 _____P________ -1 -16.1630 54.2937 99 8 239
1909072S15056 1909 19 SI MM NOT_NAMED 1909-03-13 21:00:00 NR -16.3794 53.9567 spur-other 390 357 _____P________ -1 -16.3736 53.9416 99 8 237
1909072S15056 1909 19 SI MM NOT_NAMED 1909-03-14 00:00:00 NR -16.6085 53.6120 spur-other 357 337 _____P________ -1 -16.5980 53.6064 99 8 234
1909072S15056 1909 19 SI MM NOT_NAMED 1909-03-14 03:00:00 NR -16.8487 53.2909 spur-other 337 322 _____P________ -1 -16.8391 53.2913 99 8 230
1909072S15056 1909 19 SI MM NOT_NAMED 1909-03-14 06:00:00 NR -17.1000 53.0000 reunion spur-other 322 308 _____O________ -1 -17.1000 53.0000 99 9.90000 8 225
1909072S15056 1909 19 SI MM NOT_NAMED 1909-03-14 09:00:00 NR -17.3819 52.7351 spur-other 308 300 _____P________ -1 -17.3819 52.7351 99 8 220
1909072S15056 1909 19 SI MM NOT_NAMED 1909-03-14 12:00:00 NR -17.6795 52.4969 spur-other 303 292 _____P________ -1 -17.6795 52.4969 99 7 215
1909072S15056 1909 19 SI MM NOT_NAMED 1909-03-14 15:00:00 NR -17.9859 52.2847 spur-other 297 280 _____P________ -1 -17.9859 52.2847 99 7 212
1909072S15056 1909 19 SI MM NOT_NAMED 1909-03-14 18:00:00 NR -18.2938 52.0981 spur-other 283 267 _____P________ -1 -18.2938 52.0981 99 7 208
1909072S15056 1909 19 SI MM NOT_NAMED 1909-03-14 21:00:00 NR -18.5963 51.9368 spur-other 267 261 _____P________ -1 -18.5963 51.9368 99 7 205
1909072S15056 1909 19 SI MM NOT_NAMED 1909-03-15 00:00:00 NR -18.8862 51.8002 spur-other 264 258 _____P________ -1 -18.8862 51.8002 99 6 203
1909072S15056 1909 19 SI MM NOT_NAMED 1909-03-15 03:00:00 NR -19.1565 51.6881 spur-other 266 261 _____P________ -1 -19.1565 51.6881 99 6 200
1909072S15056 1909 19 SI MM NOT_NAMED 1909-03-15 06:00:00 NR -19.4000 51.6000 reunion spur-other 264 257 _____O________ -1 -19.4000 51.6000 99 9.90000 5 204
1909072S15056 1909 19 SI MM NOT_NAMED 1909-03-15 09:00:00 NR -19.5699 51.4962 spur-other 260 253 _____P________ -1 -19.5699 51.4962 99 4 209
1909072S15056 1909 19 SI MM NOT_NAMED 1909-03-15 12:00:00 NR -19.7118 51.4164 spur-other 253 253 _____P________ -1 -19.7118 51.4164 99 3 205
1909072S15056 1909 19 SI MM NOT_NAMED 1909-03-15 15:00:00 NR -19.8350 51.3617 spur-other 257 251 _____P________ -1 -19.8350 51.3617 99 3 199
1909072S15056 1909 19 SI MM NOT_NAMED 1909-03-15 18:00:00 NR -19.9490 51.3330 spur-other 251 251 _____P________ -1 -19.9490 51.3330 99 2 189
1909072S15056 1909 19 SI MM NOT_NAMED 1909-03-15 21:00:00 NR -20.0631 51.3315 spur-other 261 261 _____P________ -1 -20.0631 51.3315 99 2 0
1909072S15056 1909 19 SI MM NOT_NAMED 1909-03-16 00:00:00 NR -20.1867 51.3582 spur-other 272 272 _____P________ -1 -20.1867 51.3582 99 3 164
1909072S15056 1909 19 SI MM NOT_NAMED 1909-03-16 03:00:00 NR -20.3292 51.4139 spur-other 273 273 _____P________ -1 -20.3292 51.4139 99 3 157
1909072S15056 1909 19 SI MM NOT_NAMED 1909-03-16 06:00:00 NR -20.5000 51.5000 reunion spur-other 287 287 _____O________ -1 -20.5000 51.5000 99 9.90000 4 161
1909072S15056 1909 19 SI MM NOT_NAMED 1909-03-16 09:00:00 NR -20.7325 51.5587 spur-other 302 302 _____P________ -1 -20.7325 51.5587 99 5 164
1909072S15056 1909 19 SI MM NOT_NAMED 1909-03-16 12:00:00 NR -20.9905 51.6446 spur-other 312 312 _____P________ -1 -20.9905 51.6446 99 6 160
1909072S15056 1909 19 SI MM NOT_NAMED 1909-03-16 15:00:00 NR -21.2690 51.7623 spur-other 344 343 _____P________ -1 -21.2690 51.7623 99 6 156
1909072S15056 1909 19 SI MM NOT_NAMED 1909-03-16 18:00:00 NR -21.5633 51.9167 spur-other 346 330 _____P________ -1 -21.5633 51.9167 99 7 151
1909072S15056 1909 19 SI MM NOT_NAMED 1909-03-16 21:00:00 NR -21.8685 52.1127 spur-other 332 319 _____P________ -1 -21.8685 52.1127 99 7 146
1909072S15056 1909 19 SI MM NOT_NAMED 1909-03-17 00:00:00 NR -22.1797 52.3553 spur-other 314 304 _____P________ -1 -22.1797 52.3553 99 8 141
1909072S15056 1909 19 SI MM NOT_NAMED 1909-03-17 03:00:00 NR -22.4918 52.6493 spur-other 309 290 _____P________ -1 -22.4918 52.6493 99 9 136
1909072S15056 1909 19 SI MM NOT_NAMED 1909-03-17 06:00:00 NR -22.8000 53.0000 reunion spur-other 290 280 _____O________ -1 -22.8000 53.0000 99 9.90000 10 130
1909072S15056 1909 19 SI MM NOT_NAMED 1909-03-17 09:00:00 NR -23.1115 53.4461 spur-other 280 271 _____P________ -1 -23.1115 53.4461 99 11 125
1909072S15056 1909 19 SI MM NOT_NAMED 1909-03-17 12:00:00 NR -23.4241 53.9579 spur-other 270 270 _____P________ -1 -23.4241 53.9579 99 12 122
1909072S15056 1909 19 SI MM NOT_NAMED 1909-03-17 15:00:00 NR -23.7320 54.5180 spur-other 280 280 _____P________ -1 -23.7320 54.5180 99 12 120
1909072S15056 1909 19 SI MM NOT_NAMED 1909-03-17 18:00:00 NR -24.0290 55.1081 spur-other 295 295 _____P________ -1 -24.0290 55.1081 99 12 118
1909072S15056 1909 19 SI MM NOT_NAMED 1909-03-17 21:00:00 NR -24.3096 55.7101 spur-other 324 324 _____P________ -1 -24.3096 55.7101 99 12 116
1909072S15056 1909 19 SI MM NOT_NAMED 1909-03-18 00:00:00 NR -24.5683 56.3053 spur-other 364 364 _____P________ -1 -24.5683 56.3053 99 12 115
1909072S15056 1909 19 SI MM NOT_NAMED 1909-03-18 03:00:00 NR -24.8000 56.8750 spur-other 402 402 _____P________ -1 -24.8000 56.8750 99 11 113
1909072S15056 1909 19 SI MM NOT_NAMED 1909-03-18 06:00:00 NR -25.0000 57.4000 reunion spur-other 442 442 _____O________ -1 -25.0000 57.4000 99 9.90000 9 113
1909072S15056 1909 19 SI MM NOT_NAMED 1909-03-18 09:00:00 NR -25.1628 57.8381 spur-other 480 480 _____P________ -1 -25.1628 57.8381 99 8 111
1909072S15056 1909 19 SI MM NOT_NAMED 1909-03-18 12:00:00 NR -25.2958 58.2405 spur-other 509 509 _____P________ -1 -25.2958 58.2405 99 7 109
1909072S15056 1909 19 SI MM NOT_NAMED 1909-03-18 15:00:00 NR -25.4030 58.6089 spur-other 539 539 _____P________ -1 -25.4030 58.6089 99 7 107
1909072S15056 1909 19 SI MM NOT_NAMED 1909-03-18 18:00:00 NR -25.4888 58.9448 spur-other 565 565 _____P________ -1 -25.4888 58.9448 99 6 105
1909072S15056 1909 19 SI MM NOT_NAMED 1909-03-18 21:00:00 NR -25.5573 59.2501 spur-other 593 593 _____P________ -1 -25.5573 59.2501 99 5 103
1909072S15056 1909 19 SI MM NOT_NAMED 1909-03-19 00:00:00 NR -25.6126 59.5265 spur-other 599 599 _____P________ -1 -25.6126 59.5265 99 5 102
1909072S15056 1909 19 SI MM NOT_NAMED 1909-03-19 03:00:00 NR -25.6588 59.7758 spur-other 619 619 _____P________ -1 -25.6588 59.7758 99 4 102
1909072S15056 1909 19 SI MM NOT_NAMED 1909-03-19 06:00:00 NR -25.7000 60.0000 reunion spur-other 626 626 _____O________ -1 -25.7000 60.0000 99 9.90000 4 102
1909072S15056 1909 19 SI MM NOT_NAMED 1909-03-19 09:00:00 NR -25.7395 60.2010 spur-other 634 634 _____P________ -1 -25.7395 60.2010 99 4 103
1909072S15056 1909 19 SI MM NOT_NAMED 1909-03-19 12:00:00 NR -25.7782 60.3816 spur-other 653 653 _____P________ -1 -25.7782 60.3816 99 3 104
1909072S15056 1909 19 SI MM NOT_NAMED 1909-03-19 15:00:00 NR -25.8162 60.5447 spur-other 657 657 _____P________ -1 -25.8162 60.5447 99 3 105
1909072S15056 1909 19 SI MM NOT_NAMED 1909-03-19 18:00:00 NR -25.8537 60.6933 spur-other 676 676 _____P________ -1 -25.8537 60.6933 99 3 106
1909072S15056 1909 19 SI MM NOT_NAMED 1909-03-19 21:00:00 NR -25.8907 60.8301 spur-other 681 681 _____P________ -1 -25.8907 60.8301 99 2 107
1909072S15056 1909 19 SI MM NOT_NAMED 1909-03-20 00:00:00 NR -25.9273 60.9582 spur-other 691 691 _____P________ -1 -25.9273 60.9582 99 2 108
1909072S15056 1909 19 SI MM NOT_NAMED 1909-03-20 03:00:00 NR -25.9637 61.0806 spur-other 705 705 _____P________ -1 -25.9637 61.0806 99 2 109
1909072S15056 1909 19 SI MM NOT_NAMED 1909-03-20 06:00:00 NR -26.0000 61.2000 reunion spur-other 710 _____O________ -1 -26.0000 61.2000 99 9.90000 2 109

About IBTrACS Database

This database is a web-friendly format of International Best Track Archive for Climate Stewardship (IBTrACS), a global best track data archive curated by NOAA dating back to 1842.

Updated: 2021-10-08